Time;durP1;ratioP1;P1;durP2;ratioP2;P2;SDS_P1;SDS_P2;PMS_P1;PMS_P2;Temp;Humidity;BMP_temperature;BMP_pressure;BME280_temperature;BME280_humidity;BME280_pressure;Samples;Min_cycle;Max_cycle;Signal;HPM_P1;HPM_P2
2022/07/13 00:01:31;;;;;;;0.82;0.82;;;;;;;30.29;29.55;99580.72;1839082;76;28197;-45
2022/07/13 00:04:20;;;;;;;0.80;0.80;;;;;;;30.29;29.59;99579.34;1859381;76;28125;-45
2022/07/13 00:07:09;;;;;;;0.73;0.73;;;;;;;30.31;29.59;99585.42;1845967;76;28029;-47
2022/07/13 00:09:58;;;;;;;0.95;0.70;;;;;;;30.32;29.65;99583.45;1842304;76;28153;-45
2022/07/13 00:12:47;;;;;;;0.70;0.70;;;;;;;30.30;29.68;99585.14;1851553;76;28175;-48
2022/07/13 00:15:35;;;;;;;0.67;0.67;;;;;;;30.30;29.73;99588.45;1853318;76;28044;-46
2022/07/13 00:18:24;;;;;;;0.70;0.70;;;;;;;30.33;29.80;99585.16;1850961;76;28158;-45
2022/07/13 00:21:12;;;;;;;0.80;0.80;;;;;;;30.32;29.83;99592.61;1842871;76;28144;-44
2022/07/13 00:24:00;;;;;;;0.70;0.70;;;;;;;30.32;29.86;99593.16;1839260;76;28199;-46
2022/07/13 00:26:49;;;;;;;0.70;0.70;;;;;;;30.34;29.95;99592.38;1841050;76;28177;-48
2022/07/13 00:29:37;;;;;;;0.77;0.77;;;;;;;30.31;29.99;99592.35;1841296;76;28074;-46
2022/07/13 00:32:26;;;;;;;1.30;0.80;;;;;;;30.34;30.05;99595.14;1843059;76;28617;-48
2022/07/13 00:35:14;;;;;;;0.70;0.70;;;;;;;30.32;30.07;99598.70;1844322;76;28115;-44
2022/07/13 00:38:04;;;;;;;0.70;0.70;;;;;;;30.30;30.15;99599.54;1857758;76;28030;-45
2022/07/13 00:40:54;;;;;;;1.55;0.85;;;;;;;30.30;30.22;99606.47;1853216;76;28010;-47
2022/07/13 00:43:42;;;;;;;0.78;0.78;;;;;;;30.31;30.25;99601.22;1846778;76;28158;-45
2022/07/13 00:46:31;;;;;;;0.80;0.80;;;;;;;30.33;30.24;99595.70;1861429;76;28070;-46
2022/07/13 00:49:21;;;;;;;0.72;0.72;;;;;;;30.34;30.25;99602.08;1847139;76;28229;-49
2022/07/13 00:52:11;;;;;;;0.70;0.70;;;;;;;30.31;30.31;99603.44;1846544;76;28553;-44
2022/07/13 00:55:01;;;;;;;0.70;0.70;;;;;;;30.28;30.29;99595.68;1843027;76;28066;-46
2022/07/13 00:57:50;;;;;;;0.62;0.62;;;;;;;30.32;30.36;99598.15;1828097;78;28119;-48
2022/07/13 01:00:38;;;;;;;0.65;0.60;;;;;;;30.32;30.35;99598.70;1851111;76;28056;-48
2022/07/13 01:03:27;;;;;;;0.80;0.80;;;;;;;30.31;30.47;99599.83;1853066;76;27989;-48
2022/07/13 01:06:18;;;;;;;0.63;0.63;;;;;;;30.36;30.44;99610.94;1847770;76;28070;-47
2022/07/13 01:09:07;;;;;;;0.70;0.70;;;;;;;30.31;30.53;99606.20;1853024;76;28102;-46
2022/07/13 01:11:55;;;;;;;0.80;0.80;;;;;;;30.31;30.57;99608.98;1850746;76;28040;-45
2022/07/13 01:14:44;;;;;;;0.60;0.60;;;;;;;30.27;30.67;99604.28;1859605;76;28102;-46
2022/07/13 01:17:34;;;;;;;0.60;0.60;;;;;;;30.27;30.67;99604.28;1860176;76;28017;-46
2022/07/13 01:20:23;;;;;;;0.70;0.70;;;;;;;30.28;30.75;99605.37;1859185;76;28039;-45
2022/07/13 01:23:14;;;;;;;0.83;0.60;;;;;;;30.28;30.73;99609.53;1813673;78;28718;-46
2022/07/13 01:26:07;;;;;;;0.65;0.65;;;;;;;30.25;30.80;99605.94;1822645;78;28418;-45
2022/07/13 01:28:54;;;;;;;0.60;0.60;;;;;;;30.25;30.71;99607.88;1859959;76;28096;-45
2022/07/13 01:31:43;;;;;;;0.60;0.60;;;;;;;30.31;30.64;99609.53;1867538;76;28039;-44
2022/07/13 01:34:32;;;;;;;0.60;0.60;;;;;;;30.30;30.57;99603.70;1839037;76;28106;-44
2022/07/13 01:37:21;;;;;;;0.70;0.70;;;;;;;30.29;30.55;99604.28;1842938;76;27981;-46
2022/07/13 01:40:12;;;;;;;0.68;0.68;;;;;;;30.29;30.58;99601.51;1842604;76;28176;-44
2022/07/13 01:43:01;;;;;;;1.37;0.80;;;;;;;30.34;30.56;99607.63;1848000;76;28134;-45
2022/07/13 01:45:49;;;;;;;0.82;0.82;;;;;;;30.28;30.63;99603.16;1856706;76;28102;-45
2022/07/13 01:48:39;;;;;;;0.62;0.62;;;;;;;30.37;30.56;99604.26;1843920;76;28066;-45
2022/07/13 01:51:27;;;;;;;0.95;0.85;;;;;;;30.34;30.54;99604.27;1847517;75;28161;-46
2022/07/13 01:54:17;;;;;;;0.80;0.80;;;;;;;30.37;30.48;99602.32;1857345;76;28068;-45
2022/07/13 01:57:05;;;;;;;0.60;0.60;;;;;;;30.31;30.62;99597.06;1840269;76;28206;-45
2022/07/13 01:59:55;;;;;;;0.65;0.65;;;;;;;30.33;30.68;99596.25;1857480;76;28537;-45
2022/07/13 02:02:44;;;;;;;0.50;0.50;;;;;;;30.34;30.68;99597.92;1850979;76;28201;-45
2022/07/13 02:05:35;;;;;;;0.85;0.60;;;;;;;30.29;30.81;99600.67;1846670;76;28120;-46
2022/07/13 02:08:26;;;;;;;0.70;0.70;;;;;;;30.27;30.75;99598.75;1843614;76;28098;-45
2022/07/13 02:11:18;;;;;;;0.70;0.70;;;;;;;30.30;30.77;99603.70;1850253;76;28105;-46
2022/07/13 02:14:06;;;;;;;0.80;0.80;;;;;;;30.28;30.83;99598.45;1839663;76;28125;-44
2022/07/13 02:16:54;;;;;;;0.60;0.60;;;;;;;30.30;30.87;99603.70;1842992;76;28129;-47
2022/07/13 02:19:44;;;;;;;0.70;0.70;;;;;;;30.28;30.85;99604.55;1861564;76;28004;-46
2022/07/13 02:22:43;;;;;;;0.70;0.70;;;;;;;30.32;30.85;99605.08;1858044;76;28021;-45
2022/07/13 02:25:34;;;;;;;0.60;0.60;;;;;;;30.32;30.85;99607.02;1848825;76;28168;-45
2022/07/13 02:28:22;;;;;;;0.80;0.80;;;;;;;30.29;30.85;99607.59;1860624;74;33668;-46
2022/07/13 02:31:13;;;;;;;0.82;0.82;;;;;;;30.30;30.94;99614.78;1837562;76;28219;-48
2022/07/13 02:34:02;;;;;;;0.65;0.65;;;;;;;30.27;31.05;99606.48;1843811;76;28222;-47
2022/07/13 02:36:50;;;;;;;0.80;0.80;;;;;;;30.25;31.06;99612.03;1861524;76;28130;-46
2022/07/13 02:39:39;;;;;;;0.73;0.73;;;;;;;30.30;31.03;99613.41;1840576;76;28087;-45
2022/07/13 02:42:27;;;;;;;0.70;0.70;;;;;;;30.31;30.93;99606.20;1849812;76;28005;-47
2022/07/13 02:45:16;;;;;;;0.80;0.80;;;;;;;30.30;30.96;99610.08;1865523;76;28082;-49
2022/07/13 02:48:05;;;;;;;0.62;0.62;;;;;;;30.32;30.94;99607.84;1842355;76;28192;-48
2022/07/13 02:50:53;;;;;;;0.80;0.80;;;;;;;30.33;30.81;99608.17;1840996;76;28144;-45
2022/07/13 02:53:42;;;;;;;0.70;0.70;;;;;;;30.33;30.83;99611.48;1857525;74;28121;-48
2022/07/13 02:56:31;;;;;;;0.60;0.60;;;;;;;30.34;30.81;99616.73;1853370;76;28180;-45
2022/07/13 02:59:20;;;;;;;1.00;0.77;;;;;;;30.38;30.76;99618.41;1856651;76;28094;-48
2022/07/13 03:02:10;;;;;;;0.70;0.70;;;;;;;30.37;30.76;99618.95;1856918;76;28127;-47
2022/07/13 03:04:59;;;;;;;0.70;0.70;;;;;;;30.35;30.82;99617.58;1856990;76;28036;-46
2022/07/13 03:07:47;;;;;;;0.78;0.78;;;;;;;30.37;30.78;99618.12;1863356;76;28128;-47
2022/07/13 03:10:36;;;;;;;0.70;0.70;;;;;;;30.37;30.77;99614.80;1857248;74;28151;-45
2022/07/13 03:13:25;;;;;;;0.80;0.80;;;;;;;30.31;30.80;99621.45;1845211;74;27972;-45
2022/07/13 03:16:14;;;;;;;0.72;0.72;;;;;;;30.31;30.83;99620.62;1860475;76;28144;-45
2022/07/13 03:19:03;;;;;;;0.60;0.60;;;;;;;30.31;30.80;99624.77;1839571;74;28199;-49
2022/07/13 03:21:51;;;;;;;0.57;0.57;;;;;;;30.32;30.74;99625.03;1848886;76;28111;-50
2022/07/13 03:24:40;;;;;;;0.80;0.80;;;;;;;30.32;30.72;99626.41;1861776;74;28037;-44
2022/07/13 03:27:29;;;;;;;0.80;0.80;;;;;;;30.30;30.74;99627.26;1847388;76;28062;-46
2022/07/13 03:30:17;;;;;;;0.65;0.65;;;;;;;30.27;30.79;99623.69;1840456;76;28152;-45
2022/07/13 03:33:06;;;;;;;0.60;0.60;;;;;;;30.30;30.77;99627.26;1846230;76;28598;-45
2022/07/13 03:35:55;;;;;;;0.80;0.80;;;;;;;30.29;30.74;99622.84;1839772;76;28086;-46
2022/07/13 03:38:43;;;;;;;0.85;0.70;;;;;;;30.27;30.74;99625.88;1857246;76;28058;-46
2022/07/13 03:41:32;;;;;;;0.80;0.80;;;;;;;30.25;30.78;99623.11;1839859;76;28625;-46
2022/07/13 03:44:21;;;;;;;0.85;0.85;;;;;;;30.24;30.83;99618.15;1841786;76;28074;-46
2022/07/13 03:47:10;;;;;;;1.00;0.80;;;;;;;30.28;30.80;99622.01;1840949;76;28138;-48
2022/07/13 03:49:58;;;;;;;0.70;0.70;;;;;;;30.28;30.72;99621.17;1844582;76;28169;-45
2022/07/13 03:52:47;;;;;;;0.80;0.80;;;;;;;30.26;30.74;99617.86;1860361;76;28213;-46
2022/07/13 03:55:36;;;;;;;0.80;0.80;;;;;;;30.29;30.73;99625.06;1855702;76;28300;-46
2022/07/13 03:58:25;;;;;;;0.60;0.60;;;;;;;30.29;30.71;99625.62;1794357;78;28483;-44
2022/07/13 04:01:14;;;;;;;0.60;0.60;;;;;;;30.26;30.73;99630.33;1793841;79;28205;-45
2022/07/13 04:04:03;;;;;;;0.70;0.70;;;;;;;30.27;30.66;99634.77;1814784;77;28240;-45
2022/07/13 04:06:52;;;;;;;0.70;0.70;;;;;;;30.27;30.68;99632.00;1799578;77;28397;-47
2022/07/13 04:09:41;;;;;;;0.72;0.72;;;;;;;30.23;30.71;99640.58;1824340;77;28244;-45
2022/07/13 04:12:30;;;;;;;0.80;0.80;;;;;;;30.28;30.63;99633.64;1823384;77;28210;-47
2022/07/13 04:15:19;;;;;;;0.70;0.70;;;;;;;30.26;30.68;99640.03;1821858;77;28244;-48
2022/07/13 04:18:08;;;;;;;0.80;0.80;;;;;;;30.26;30.69;99638.09;1824621;78;28332;-45
2022/07/13 04:20:56;;;;;;;0.70;0.70;;;;;;;30.26;30.65;99634.48;1805667;78;28278;-46
2022/07/13 04:23:46;;;;;;;0.70;0.70;;;;;;;30.29;30.67;99640.86;1803650;78;28344;-48
2022/07/13 04:26:35;;;;;;;0.88;0.88;;;;;;;30.26;30.72;99640.03;1801700;78;28348;-46
2022/07/13 04:29:24;;;;;;;0.80;0.80;;;;;;;30.26;30.67;99638.64;1795774;78;28319;-46
2022/07/13 04:32:12;;;;;;;0.70;0.70;;;;;;;30.23;30.72;99643.35;1799141;76;28343;-45
2022/07/13 04:35:01;;;;;;;0.95;0.95;;;;;;;30.26;30.64;99645.02;1807399;78;28366;-48
2022/07/13 04:37:50;;;;;;;0.70;0.70;;;;;;;30.27;30.63;99645.86;1813154;78;28307;-46
2022/07/13 04:40:40;;;;;;;0.70;0.70;;;;;;;30.24;30.66;99644.48;1815891;78;28270;-46
2022/07/13 04:43:28;;;;;;;0.70;0.70;;;;;;;30.24;30.65;99650.56;1815043;78;28402;-46
2022/07/13 04:46:17;;;;;;;0.88;0.88;;;;;;;30.25;30.47;99653.05;1807157;76;28335;-46
2022/07/13 04:49:08;;;;;;;0.70;0.70;;;;;;;30.27;30.45;99654.98;1813328;78;28286;-47
2022/07/13 04:51:56;;;;;;;0.80;0.80;;;;;;;30.27;30.40;99660.52;1822246;78;28272;-49
2022/07/13 04:54:45;;;;;;;0.90;0.90;;;;;;;30.26;30.42;99663.59;1856231;76;28178;-46
2022/07/13 04:57:33;;;;;;;0.90;0.90;;;;;;;30.24;30.40;99663.05;1855181;76;28164;-49
2022/07/13 05:00:22;;;;;;;0.70;0.70;;;;;;;30.26;30.38;99666.36;1858188;76;28243;-44
2022/07/13 05:03:10;;;;;;;0.70;0.70;;;;;;;30.23;30.41;99664.98;1862756;76;28110;-46
2022/07/13 05:05:58;;;;;;;1.20;0.90;;;;;;;30.22;30.42;99663.33;1855658;76;28067;-47
2022/07/13 05:08:46;;;;;;;1.20;0.82;;;;;;;30.25;30.32;99663.30;1865631;76;28205;-47
2022/07/13 05:11:36;;;;;;;0.70;0.70;;;;;;;30.25;30.37;99663.30;1864239;75;28085;-48
2022/07/13 05:14:25;;;;;;;0.80;0.80;;;;;;;30.22;30.28;99666.11;1838960;75;28086;-45
2022/07/13 05:17:16;;;;;;;0.90;0.90;;;;;;;30.19;30.22;99670.81;1839646;76;28250;-48
2022/07/13 05:20:06;;;;;;;0.80;0.80;;;;;;;30.16;30.15;99669.98;1838615;76;28132;-49
2022/07/13 05:22:55;;;;;;;2.02;0.80;;;;;;;30.16;29.96;99676.07;1838868;76;28191;-49
2022/07/13 05:25:45;;;;;;;2.20;1.00;;;;;;;30.14;29.83;99674.14;1858045;76;28169;-45
2022/07/13 05:28:34;;;;;;;0.70;0.70;;;;;;;30.09;29.68;99675.81;1864369;76;28021;-51
2022/07/13 05:31:23;;;;;;;0.80;0.80;;;;;;;30.07;29.59;99679.42;1855037;76;28066;-49
2022/07/13 05:34:11;;;;;;;0.80;0.80;;;;;;;30.06;29.56;99686.06;1854484;76;28070;-47
2022/07/13 05:37:01;;;;;;;1.00;1.00;;;;;;;29.98;29.30;99683.05;1864228;76;28138;-45
2022/07/13 05:39:50;;;;;;;1.65;0.80;;;;;;;29.89;29.20;99681.95;1854174;75;28280;-51
2022/07/13 05:42:38;;;;;;;1.00;0.90;;;;;;;29.83;29.22;99680.27;1868782;75;28127;-45
2022/07/13 05:45:27;;;;;;;1.00;0.90;;;;;;;29.77;29.17;99682.78;1851184;75;28137;-47
2022/07/13 05:48:15;;;;;;;0.85;0.80;;;;;;;29.72;29.27;99684.97;1841924;76;28381;-47
2022/07/13 05:51:05;;;;;;;0.80;0.80;;;;;;;29.69;29.34;99686.89;1842937;76;28191;-47
2022/07/13 05:53:55;;;;;;;0.90;0.90;;;;;;;29.61;29.29;99690.23;1850406;76;28002;-50
2022/07/13 05:56:44;;;;;;;0.80;0.80;;;;;;;29.57;29.30;99686.91;1857320;76;28074;-48
2022/07/13 05:59:33;;;;;;;1.10;0.80;;;;;;;29.54;29.25;99686.91;1848853;76;28114;-50
2022/07/13 06:02:22;;;;;;;2.02;0.80;;;;;;;29.49;29.23;99691.05;1844256;76;28020;-46
2022/07/13 06:05:11;;;;;;;1.10;1.10;;;;;;;29.49;29.19;99687.45;1861854;76;28189;-46
2022/07/13 06:08:00;;;;;;;1.30;1.00;;;;;;;29.46;29.14;99687.44;1861547;76;28070;-46
2022/07/13 06:10:48;;;;;;;0.93;0.85;;;;;;;29.44;29.17;99691.04;1863053;76;28125;-47
2022/07/13 06:13:37;;;;;;;0.90;0.90;;;;;;;29.39;29.24;99682.18;1857176;76;28088;-49
2022/07/13 06:16:35;;;;;;;1.15;0.78;;;;;;;29.43;29.33;99682.45;1937055;72;27941;-47
2022/07/13 06:19:23;;;;;;;0.90;0.90;;;;;;;29.41;29.20;99692.97;1901994;73;28112;-50
2022/07/13 06:22:11;;;;;;;0.87;0.87;;;;;;;29.35;29.12;99689.37;1912705;73;28115;-45
2022/07/13 06:24:59;;;;;;;0.80;0.80;;;;;;;29.34;29.22;99688.25;1910771;73;28078;-45
2022/07/13 06:27:48;;;;;;;1.07;0.97;;;;;;;29.31;29.34;99693.78;1901699;75;28117;-47
2022/07/13 06:30:37;;;;;;;0.70;0.70;;;;;;;29.32;29.43;99689.92;1908014;73;28089;-48
2022/07/13 06:33:25;;;;;;;1.37;0.88;;;;;;;29.31;29.35;99686.05;1911041;73;28176;-48
2022/07/13 06:36:13;;;;;;;0.80;0.70;;;;;;;29.34;29.35;99688.25;1917807;73;28013;-47
2022/07/13 06:39:03;;;;;;;1.07;0.85;;;;;;;29.32;29.40;99694.62;1902688;73;28054;-46
2022/07/13 06:41:51;;;;;;;0.90;0.80;;;;;;;29.31;29.45;99699.31;1901800;75;28125;-44
2022/07/13 06:44:40;;;;;;;1.30;0.90;;;;;;;29.32;29.16;99698.77;1904982;73;28167;-45
2022/07/13 06:47:28;;;;;;;1.15;0.78;;;;;;;29.32;29.01;99694.07;1919331;73;28244;-42
2022/07/13 06:50:17;;;;;;;2.35;0.72;;;;;;;29.32;29.21;99697.38;1906825;73;28045;-45
2022/07/13 06:53:05;;;;;;;0.80;0.80;;;;;;;29.34;29.16;99697.94;1910085;73;28211;-50
2022/07/13 06:55:54;;;;;;;0.82;0.80;;;;;;;29.37;29.33;99701.55;1901434;73;28057;-49
2022/07/13 06:58:42;;;;;;;1.10;0.90;;;;;;;29.40;29.59;99694.09;1901971;75;28107;-50
2022/07/13 07:01:31;;;;;;;1.45;0.70;;;;;;;29.46;29.64;99695.75;1916655;73;28966;-51
2022/07/13 07:04:19;;;;;;;1.72;0.90;;;;;;;29.48;29.76;99690.76;1901887;73;28077;-48
2022/07/13 07:07:08;;;;;;;0.70;0.70;;;;;;;29.51;29.85;99697.14;1909936;73;28128;-47
2022/07/13 07:09:57;;;;;;;0.60;0.60;;;;;;;29.54;29.92;99698.53;1929391;73;37005;-49
2022/07/13 07:12:45;;;;;;;0.80;0.80;;;;;;;29.54;29.99;99696.59;1905903;74;28194;-52
2022/07/13 07:15:33;;;;;;;0.80;0.80;;;;;;;29.57;30.04;99696.60;1931082;73;28071;-52
2022/07/13 07:18:24;;;;;;;0.80;0.80;;;;;;;29.59;30.15;99693.84;1890431;74;27690;-51
2022/07/13 07:21:13;;;;;;;0.88;0.88;;;;;;;29.62;30.19;99693.80;1895339;75;28358;-46
2022/07/13 07:24:01;;;;;;;1.30;1.00;;;;;;;29.65;30.22;99698.80;1878446;74;27751;-47
2022/07/13 07:26:51;;;;;;;1.00;0.78;;;;;;;29.65;30.29;99695.48;1883120;75;28619;-48
2022/07/13 07:29:39;;;;;;;0.70;0.70;;;;;;;29.66;30.35;99693.01;1888470;75;28103;-50
2022/07/13 07:32:27;;;;;;;0.80;0.70;;;;;;;29.68;30.34;99691.34;1898452;75;28017;-52
2022/07/13 07:35:15;;;;;;;0.70;0.70;;;;;;;29.70;30.38;99691.34;1898447;75;28224;-51
2022/07/13 07:38:04;;;;;;;0.80;0.80;;;;;;;29.69;30.49;99683.29;1902978;74;27947;-51
2022/07/13 07:40:52;;;;;;;1.50;0.72;;;;;;;29.71;30.49;99688.83;1865735;74;28173;-48
2022/07/13 07:43:41;;;;;;;0.70;0.70;;;;;;;29.74;30.53;99685.52;1893544;74;28158;-47
2022/07/13 07:46:29;;;;;;;0.60;0.60;;;;;;;29.77;30.55;99685.00;1878233;74;27758;-47
2022/07/13 07:49:18;;;;;;;1.50;0.90;;;;;;;29.77;30.60;99681.39;1888457;74;28060;-49
2022/07/13 07:52:06;;;;;;;0.90;0.80;;;;;;;29.77;30.67;99668.93;1914372;74;28149;-48
2022/07/13 07:54:55;;;;;;;0.60;0.60;;;;;;;29.78;30.71;99665.87;1879140;75;27834;-50
2022/07/13 07:57:51;;;;;;;0.90;0.80;;;;;;;29.80;30.71;99663.66;1893035;74;28031;-50
2022/07/13 08:00:39;;;;;;;1.25;0.70;;;;;;;29.80;30.76;99660.88;1900314;74;28040;-47
2022/07/13 08:03:28;;;;;;;0.70;0.70;;;;;;;29.81;30.79;99663.11;1889696;74;28076;-50
2022/07/13 08:06:17;;;;;;;0.60;0.60;;;;;;;29.80;30.87;99658.69;1867995;75;28179;-49
2022/07/13 08:09:08;;;;;;;0.65;0.65;;;;;;;29.82;30.89;99658.69;1882111;75;28200;-48
2022/07/13 08:11:56;;;;;;;0.85;0.72;;;;;;;29.85;30.83;99660.88;1882990;75;28630;-47
2022/07/13 08:14:44;;;;;;;1.15;0.70;;;;;;;29.84;30.89;99652.87;1904634;74;32953;-48
2022/07/13 08:17:33;;;;;;;0.75;0.75;;;;;;;29.87;30.91;99649.55;1900005;74;28017;-47
2022/07/13 08:20:21;;;;;;;0.85;0.85;;;;;;;29.89;30.91;99650.93;1889177;75;28220;-46
2022/07/13 08:26:16;;;;;;;0.80;0.80;;;;;;;29.91;30.94;99652.86;1888804;75;28024;-50
2022/07/13 08:29:05;;;;;;;0.60;0.60;;;;;;;29.87;31.01;99647.58;1899019;74;28096;-48
2022/07/13 08:31:53;;;;;;;1.82;0.70;;;;;;;29.89;31.05;99644.00;1914529;73;28494;-46
2022/07/13 08:40:54;;;;;;;0.72;0.72;;;;;;;29.94;31.07;99641.20;1898139;74;28110;-50
2022/07/13 08:43:43;;;;;;;0.70;0.70;;;;;;;29.92;31.13;99640.66;1900974;73;28071;-48
2022/07/13 08:46:32;;;;;;;0.50;0.50;;;;;;;29.93;31.15;99640.95;1888846;74;28181;-48
2022/07/13 08:49:22;;;;;;;0.70;0.70;;;;;;;29.94;31.15;99638.43;1913784;74;28014;-50
2022/07/13 08:52:12;;;;;;;1.80;0.82;;;;;;;29.99;31.12;99640.39;1921971;73;28162;-50
2022/07/13 08:55:03;;;;;;;0.70;0.70;;;;;;;29.99;31.17;99640.39;1911104;74;28142;-47
2022/07/13 08:57:51;;;;;;;0.70;0.70;;;;;;;30.02;31.17;99639.26;1890820;74;28048;-50
2022/07/13 09:00:42;;;;;;;0.73;0.73;;;;;;;30.01;31.19;99639.55;1910061;73;28080;-48
2022/07/13 09:03:34;;;;;;;0.70;0.70;;;;;;;30.02;31.22;99640.64;1893209;74;28189;-49
2022/07/13 09:06:47;;;;;;;0.82;0.68;;;;;;;30.04;31.21;99646.73;1901254;73;28126;-49
2022/07/13 09:09:36;;;;;;;0.50;0.50;;;;;;;30.04;31.22;99642.58;1911139;73;28076;-49
2022/07/13 09:12:27;;;;;;;0.70;0.70;;;;;;;30.01;31.30;99646.48;1901104;73;28187;-50
2022/07/13 09:15:15;;;;;;;0.70;0.70;;;;;;;30.01;31.37;99644.52;1898328;74;28173;-49
2022/07/13 09:18:03;;;;;;;0.70;0.70;;;;;;;30.04;31.36;99640.35;1916638;73;28067;-47
2022/07/13 09:20:53;;;;;;;0.62;0.62;;;;;;;30.04;31.35;99641.19;1916909;73;28075;-49
2022/07/13 09:23:43;;;;;;;0.60;0.60;;;;;;;30.06;31.35;99636.74;1910594;74;28157;-47
2022/07/13 09:26:42;;;;;;;0.72;0.60;;;;;;;30.05;31.40;99634.55;1910702;73;28106;-46
2022/07/13 09:29:31;;;;;;;0.60;0.60;;;;;;;30.07;31.39;99631.49;1834213;76;28345;-49
2022/07/13 09:32:19;;;;;;;1.07;0.70;;;;;;;30.06;31.45;99633.42;1900808;75;28064;-50
2022/07/13 09:35:08;;;;;;;0.60;0.60;;;;;;;30.07;31.46;99636.48;1917949;73;37279;-49
2022/07/13 09:37:57;;;;;;;0.50;0.50;;;;;;;30.07;31.47;99635.09;1917871;73;28035;-49
2022/07/13 09:40:46;;;;;;;0.70;0.70;;;;;;;30.09;31.51;99628.72;1901092;75;28121;-50
2022/07/13 09:46:59;;;;;;;0.95;0.60;;;;;;;30.08;31.55;99625.66;1901367;75;28106;-52
2022/07/13 09:49:48;;;;;;;0.60;0.60;;;;;;;30.08;31.57;99629.81;1904349;73;28136;-48
2022/07/13 09:52:38;;;;;;;0.65;0.65;;;;;;;30.07;31.63;99619.02;1918690;73;28062;-51
2022/07/13 09:55:26;;;;;;;0.60;0.60;;;;;;;30.08;31.62;99625.66;1901822;73;28048;-48
2022/07/13 09:58:18;;;;;;;0.62;0.62;;;;;;;30.08;31.66;99620.12;1904864;73;28099;-52
2022/07/13 10:01:07;;;;;;;0.80;0.80;;;;;;;30.10;31.67;99617.09;1901181;75;28105;-47
2022/07/13 10:03:56;;;;;;;0.80;0.80;;;;;;;30.09;31.70;99619.02;1912115;73;27986;-48
2022/07/13 10:06:45;;;;;;;0.70;0.70;;;;;;;30.13;31.70;99619.85;1912564;73;28092;-51
2022/07/13 10:09:35;;;;;;;0.70;0.70;;;;;;;30.15;31.70;99612.08;1903846;73;28134;-50
2022/07/13 10:12:23;;;;;;;0.75;0.70;;;;;;;30.17;31.70;99608.47;1914988;73;28088;-49
2022/07/13 10:15:13;;;;;;;0.60;0.60;;;;;;;30.15;31.71;99610.15;1911302;73;28200;-50
2022/07/13 10:18:03;;;;;;;0.62;0.62;;;;;;;30.17;31.78;99602.92;1923568;73;28035;-52
2022/07/13 10:20:55;;;;;;;0.60;0.60;;;;;;;30.19;31.77;99600.70;1897572;73;28081;-53
2022/07/13 10:23:44;;;;;;;0.93;0.72;;;;;;;30.17;31.79;99596.84;1888942;74;28644;-48
2022/07/13 10:26:32;;;;;;;0.50;0.50;;;;;;;30.17;31.82;99596.00;1916168;73;28074;-48
2022/07/13 10:29:24;;;;;;;0.70;0.70;;;;;;;30.15;31.87;99596.30;1923549;73;28046;-47
2022/07/13 10:32:15;;;;;;;0.70;0.70;;;;;;;30.16;31.91;99589.63;1903370;73;28094;-45
2022/07/13 10:35:09;;;;;;;0.90;0.80;;;;;;;30.17;31.92;99590.45;1916449;73;28208;-50
2022/07/13 10:38:03;;;;;;;0.65;0.65;;;;;;;30.17;31.94;99591.30;1888717;74;28059;-48
2022/07/13 10:40:55;;;;;;;0.62;0.62;;;;;;;30.18;31.95;99590.74;1888880;74;28612;-51
2022/07/13 10:43:43;;;;;;;0.60;0.60;;;;;;;30.17;31.98;99586.30;1887228;75;28176;-47
2022/07/13 10:46:47;;;;;;;0.73;0.73;;;;;;;30.20;31.99;99584.36;1901016;74;28064;-47
2022/07/13 10:49:41;;;;;;;0.70;0.70;;;;;;;30.20;32.00;99591.29;1878816;74;28111;-50
2022/07/13 10:52:43;;;;;;;0.47;0.47;;;;;;;30.16;32.07;99575.77;1890222;74;28080;-48
2022/07/13 10:55:34;;;;;;;0.63;0.63;;;;;;;30.16;32.13;99570.77;1888837;74;28060;-48
2022/07/13 10:58:38;;;;;;;0.50;0.50;;;;;;;30.14;32.17;99566.08;1902595;73;28107;-49
2022/07/13 11:01:45;;;;;;;0.60;0.60;;;;;;;30.16;32.18;99568.00;1906943;73;28180;-48
2022/07/13 11:04:31;;;;;;;0.70;0.70;;;;;;;30.14;32.20;99564.14;1888932;75;28117;-51
2022/07/13 11:07:22;;;;;;;0.63;0.63;;;;;;;30.15;32.19;99557.50;1888971;75;28018;-46
2022/07/13 11:10:20;;;;;;;0.62;0.62;;;;;;;30.15;32.21;99569.13;1901961;73;27983;-48
2022/07/13 11:13:13;;;;;;;0.70;0.70;;;;;;;30.16;32.25;99559.69;1893064;74;28044;-48
2022/07/13 11:16:01;;;;;;;0.63;0.63;;;;;;;30.15;32.28;99558.05;1901288;73;28173;-49
2022/07/13 11:18:54;;;;;;;0.60;0.60;;;;;;;30.16;32.29;99558.30;1904899;74;28007;-49
2022/07/13 11:22:10;;;;;;;0.62;0.62;;;;;;;30.16;32.30;99554.15;1906016;73;28079;-50
2022/07/13 11:25:19;;;;;;;0.50;0.50;;;;;;;30.17;32.27;99554.44;1903749;73;28166;-47
2022/07/13 11:28:29;;;;;;;0.78;0.78;;;;;;;30.14;32.34;99545.30;1900025;75;28130;-50
2022/07/13 11:31:19;;;;;;;0.70;0.70;;;;;;;30.13;32.39;99545.04;1901405;75;27975;-46
2022/07/13 11:34:07;;;;;;;0.80;0.60;;;;;;;30.11;32.41;99552.81;1923697;73;28124;-49
2022/07/13 11:36:58;;;;;;;0.70;0.70;;;;;;;30.14;32.39;99539.75;1901318;75;27998;-49
2022/07/13 11:39:47;;;;;;;0.50;0.50;;;;;;;30.17;32.38;99540.58;1910392;74;28060;-47
2022/07/13 11:42:36;;;;;;;0.60;0.60;;;;;;;30.17;32.37;99541.42;1912337;73;28042;-47
2022/07/13 11:45:30;;;;;;;0.60;0.60;;;;;;;30.20;32.32;99534.48;1907370;73;28102;-46
2022/07/13 11:48:18;;;;;;;0.60;0.60;;;;;;;30.22;32.33;99531.70;1923721;73;28006;-46
2022/07/13 11:51:11;;;;;;;0.70;0.70;;;;;;;30.21;32.36;99525.03;1901407;75;28096;-46
2022/07/13 11:54:12;;;;;;;0.55;0.55;;;;;;;30.22;32.35;99520.61;1901354;75;27978;-49
2022/07/13 11:57:00;;;;;;;0.60;0.60;;;;;;;30.20;32.39;99520.05;1901354;75;28099;-51
2022/07/13 11:59:49;;;;;;;0.53;0.53;;;;;;;30.20;32.42;99520.63;1903318;73;28096;-48
2022/07/13 12:02:37;;;;;;;1.10;0.72;;;;;;;30.20;32.43;99517.27;1934793;73;28012;-52
2022/07/13 12:05:28;;;;;;;0.70;0.70;;;;;;;30.22;32.44;99505.92;1901446;75;28009;-49
2022/07/13 12:08:17;;;;;;;0.72;0.72;;;;;;;30.23;32.42;99500.63;1908259;73;28026;-49
2022/07/13 12:11:09;;;;;;;0.45;0.45;;;;;;;30.23;32.44;99494.55;1911248;73;34987;-44
2022/07/13 12:13:57;;;;;;;0.80;0.80;;;;;;;30.22;32.47;99496.22;1901216;75;28141;-48
2022/07/13 12:16:46;;;;;;;0.60;0.60;;;;;;;30.22;32.48;99499.00;1901397;75;27983;-49
2022/07/13 12:19:34;;;;;;;0.62;0.62;;;;;;;30.22;32.48;99487.91;1930078;73;28634;-51
2022/07/13 12:22:24;;;;;;;0.60;0.60;;;;;;;30.24;32.47;99480.14;1902477;73;28200;-46
2022/07/13 12:25:33;;;;;;;0.53;0.53;;;;;;;30.25;32.48;99482.61;1917582;73;28096;-50
2022/07/13 12:28:25;;;;;;;0.63;0.63;;;;;;;30.26;32.51;99486.22;1906567;74;28015;-52
2022/07/13 12:31:13;;;;;;;0.70;0.70;;;;;;;30.25;32.52;99490.09;1901005;75;28014;-50
2022/07/13 12:34:02;;;;;;;0.55;0.55;;;;;;;30.24;32.53;99484.30;1901026;75;28063;-49
2022/07/13 12:36:51;;;;;;;0.60;0.60;;;;;;;30.24;32.55;99475.98;1888954;75;28137;-47
2022/07/13 12:39:40;;;;;;;0.70;0.70;;;;;;;30.27;32.51;99488.69;1889092;75;28130;-48
2022/07/13 12:42:28;;;;;;;0.75;0.75;;;;;;;30.27;32.52;99466.52;1911221;74;28107;-48
2022/07/13 12:45:18;;;;;;;1.00;0.70;;;;;;;30.28;32.52;99475.67;1901149;75;28013;-47
2022/07/13 12:48:15;;;;;;;1.10;0.70;;;;;;;30.27;32.55;99460.98;1889060;75;27992;-52
2022/07/13 12:51:12;;;;;;;0.70;0.70;;;;;;;30.26;32.58;99462.11;1901293;75;28062;-51
2022/07/13 12:54:00;;;;;;;0.60;0.60;;;;;;;30.27;32.58;99462.37;1889151;75;27984;-50
2022/07/13 12:56:53;;;;;;;0.50;0.50;;;;;;;30.26;32.60;99462.66;1906544;73;28175;-49
2022/07/13 12:59:44;;;;;;;0.53;0.53;;;;;;;30.28;32.61;99465.97;1899880;74;28633;-49
2022/07/13 13:02:32;;;;;;;0.70;0.70;;;;;;;30.28;32.61;99461.81;1907603;73;28112;-52
2022/07/13 13:05:20;;;;;;;0.65;0.65;;;;;;;30.30;32.60;99465.13;1888971;75;28108;-51
2022/07/13 13:08:08;;;;;;;0.80;0.70;;;;;;;30.28;32.63;99459.87;1906555;73;28031;-46
2022/07/13 13:10:57;;;;;;;0.70;0.70;;;;;;;30.28;32.66;99462.65;1900311;74;28189;-48
2022/07/13 13:13:46;;;;;;;0.82;0.82;;;;;;;30.30;32.66;99452.66;1901271;75;28015;-48
2022/07/13 13:16:35;;;;;;;0.70;0.70;;;;;;;30.31;32.67;99451.00;1898457;74;28347;-52
2022/07/13 13:19:23;;;;;;;0.50;0.50;;;;;;;30.31;32.69;99464.86;1908723;73;28162;-48
2022/07/13 13:22:12;;;;;;;0.70;0.70;;;;;;;30.31;32.65;99459.31;1889181;75;28137;-46
2022/07/13 13:25:00;;;;;;;0.70;0.70;;;;;;;30.31;32.67;99451.55;1901171;75;28030;-52
2022/07/13 13:27:49;;;;;;;0.50;0.50;;;;;;;30.32;32.64;99452.64;1911150;74;28056;-51
2022/07/13 13:30:46;;;;;;;1.00;0.70;;;;;;;30.32;32.68;99443.49;1901349;75;28074;-51
2022/07/13 13:33:35;;;;;;;0.70;0.70;;;;;;;30.32;32.71;99449.87;1889035;75;28122;-52